Skip Navigation Linkwww.weather.gov 
NOAA logo - Select to go to the NOAA homepage National Weather Service
 Headquarters Office   NWS logo
NWS Office of the Chief Information Officer/Telecommunication Operations Center
 
   

Current Weather Conditions:
Kilimanjaro Airport, Tanzania

(HTKJ) 03-25S 037-04E 896M

Conditions at

2017.03.25 1600 UTC
Wind Calm
Visibility greater than 7 mile(s)
Sky conditions mostly clear
Weather Cumulonimbus clouds observed
Temperature 86 F (30 C)
Dew Point 60 F (16 C)
Relative Humidity 42%
Pressure (altimeter) 29.85 in. Hg (1011 hPa)
ob HTKJ 251600Z 08010KT 9999 FEW040CB 30/16 Q1011 NOSIG HTMG 251600Z 00000KT 9999 FEW026 FEW028CB 28/24 Q1013

24 Hour Summary

Time
EDT (UTC)
Temperature
F (C)
Dew Point
F (C)
Pressure
Inches (hPa)
Wind
MPH
Weather
Latest Noon (16) Mar 25 86 (30) 60 (16) 29.85 (1011) Calm
11 AM (15) Mar 25 91 (33) 60 (16) 29.85 (1011) E 17
10 AM (14) No Data
9 AM (13) Mar 25 93 (34) 62 (17) 29.85 (1011) E 12
8 AM (12) Mar 25 91 (33) 64 (18) 29.88 (1012) E 12
7 AM (11) No Data
6 AM (10) Mar 25 89 (32) 66 (19) 29.97 (1015) E 12
5 AM (9) Mar 25 84 (29) 66 (19) 30.00 (1016) Calm
4 AM (8) Mar 25 82 (28) 68 (20) 30.03 (1017) SSE 6
3 AM (7) Mar 25 80 (27) 68 (20) 30.03 (1017) E 6
2 AM (6) Mar 25 77 (25) 69 (21) 30.03 (1017) Calm
1 AM (5) Mar 25 73 (23) 68 (20) 30.03 (1017) NE 6
Midnight (4) Mar 25 73 (23) 68 (20) 30.00 (1016) NE 6
11 PM (3) No Data
10 PM (2) Mar 24 73 (23) 68 (20) 30.00 (1016) NE 6
9 PM (1) Mar 24 73 (23) 68 (20) 29.97 (1015) E 6
8 PM (0) Mar 24 73 (23) 68 (20) 29.97 (1015) SSE 6
7 PM (23) No Data
6 PM (22) No Data
5 PM (21) Mar 24 77 (25) 68 (20) 30.00 (1016) E 12
4 PM (20) Mar 24 77 (25) 66 (19) 30.00 (1016) E 12
3 PM (19) No Data
2 PM (18) Mar 24 E 17
Oldest 1 PM (17) Mar 24 84 (29) 62 (17) 29.91 (1013) ENE 6
Time
EDT (UTC)
Temperature
F(C)
Dew Point
F(C)
Pressure
Inches(hPa)
Wind
(MPH)
Weather

The information presented here is taken from products produced by the U.S. National Weather Service and other national and international agencies




US Dept of Commerce
National Oceanic and Atmospheric Administration
National Weather Service
1325 East West Highway
Silver Spring, MD 20910
Page Author: NWS Internet Services Team
Disclaimer
Feedback
Privacy Notice
Credits